Meteo Giornale » Osservazioni meteo Italia » Grazzanise

ore: 16:55 - Osservazioni Meteo Grazzanise
Lat. 41° 3' N Lon. 14° 4' E Alt. 9 metri s.l.m.

coperto_temporali Europe/Rome

26 °C

Temporale

Temp. 24 Ore

20 °C

34 °C

Sud

14.8 Km/h

Dew point 25 °C

Umidità 94 %

Visibilità  10 Km

Il sole sorge alle ore 06:13

Il sole tramonta alle ore 20:02

Data e Ora Cielo e Fenomeni T °C DP °C Um. % Pres. hPa Vis. km Vento km/h
Oggi h: 16:55 coperto_temporali Temporale 26 25 94 1012 10 S 14.8
Oggi h: 15:55 nuvoloso_temporali Temporale con Pioggia 25 23 88 1011 5 O 16.7
Oggi h: 14:55 nuvoloso Nuvoloso 30 24 70 1012 10 O/SO 20.3
Oggi h: 13:55 nuvoloso Nuvoloso 34 24 56 1012 10 N 11.1
Oggi h: 12:55 poco_nuvoloso Poco Nuvoloso 33 24 59 1012 10 N/NE 7.4
Oggi h: 11:55 poco_nuvoloso Poco Nuvoloso 33 24 59 1012 10 N 5.5
Oggi h: 10:55 poco_nuvoloso Poco Nuvoloso 32 24 62 1012 10 N 5.5
Oggi h: 09:55 poco_nuvoloso Poco Nuvoloso 29 25 79 1012 10 N 5.5
Oggi h: 08:55 poco_nuvoloso Poco Nuvoloso 27 24 83 1012 10 N 5.5
Oggi h: 07:55 nuvoloso Nuvoloso 24 21 83 1012 10 N 3.7
Oggi h: 06:55 nuvoloso Nuvoloso 20 18 88 1012 10 N 5.5
Oggi h: 05:55 nuvoloso Nuvoloso 20 18 88 1012 10 N 3.7
Oggi h: 04:55 nuvoloso Nuvoloso 21 19 88 1012 10 NE 7.4
Oggi h: 03:55 nuvoloso Nuvoloso 21 20 94 1012 10 N 1.8
Oggi h: 02:55 nuvoloso Nuvoloso 21 20 94 1013 10 N 3.7
Oggi h: 01:55 nuvoloso Nuvoloso 21 20 94 1013 10 N 5.5
Oggi h: 00:55 nuvoloso Nuvoloso 21 20 94 1013 10 N 3.7
Ieri h: 23:55 nuvoloso Nuvoloso 22 21 94 1013 10 N 3.7
Ieri h: 22:55 nuvoloso Nuvoloso 23 22 94 1013 10 N 1.8
Ieri h: 21:55 nuvoloso Nuvoloso 23 22 94 1013 10 N 3.7
Ieri h: 20:55 nuvoloso Nuvoloso 24 22 88 1012 10 N 3.7
Ieri h: 19:55 nuvoloso Nuvoloso 25 23 88 1012 10 N 3.7
Ieri h: 18:55 molto_nuvoloso Molto Nuvoloso 27 23 78 1012 10 E/SE 9.3
Ieri h: 17:55 molto_nuvoloso Molto Nuvoloso 27 23 78 1012 10 SE 9.3